Flight Track Log - Related Links

Times and Time Zones

All times are in EDT time to prevent confusion due to time zone crossing. See the DAL1562 flight status page for this flight to view local times or setup timezone preferences in your user account.

Time Position Orientation Groundspeed Altitude Reporting Facility
EDT Latitude Longitude Course Direction KTS MPH feet Rate Location/Type
Sun 04:57:37 PM 39.8833 -75.2167 270° West 169 194 800  Level Philadelphia TRACON
Sun 04:58:26 PM 39.9000 -75.1667 67° East 230 265 2,400 2,532 Climbing Philadelphia TRACON
Sun 04:59:26 PM 39.9500 -75.1333 27° Northeast 290 334 5,400 3,150 Climbing Philadelphia TRACON
Sun 05:00:00 PM 39.9124 -75.6497 288° West  Level FlightAware Approximate
Sun 05:00:26 PM 40.0000 -75.2000 314° West 280 322 8,700  Level Philadelphia TRACON
Sun 05:01:00 PM 39.9000 -75.7892 270° West  Level FlightAware Approximate
Sun 05:02:00 PM 39.9000 -75.9319 270° West  Level FlightAware Approximate
Sun 05:02:41 PM 39.9611 -75.4292 258° West 289 333 10,100  Level New York Center
Sun 05:03:00 PM 39.9000 -76.0746 270° West  Level FlightAware Approximate
Sun 05:03:42 PM 39.9417 -75.5522 258° West 322 371 11,100  Level New York Center
Sun 05:04:42 PM 39.9175 -75.6806 256° West 360 414 15,200 3,407 Climbing New York Center
Sun 05:05:40 PM 39.9142 -75.8075 268° West 366 421 17,800 2,390 Climbing New York Center
Sun 05:06:40 PM 39.9156 -75.9242 271° West 361 415 19,900 1,636 Climbing New York Center
Sun 05:07:41 PM 39.9139 -76.0567 269° West 366 421 21,100 1,289 Climbing New York Center
Sun 05:08:41 PM 39.9114 -76.2000 269° West 379 436 22,500 1,388 Climbing New York Center
Sun 05:09:42 PM 39.9128 -76.3517 271° West 405 466 23,900 1,328 Climbing New York Center
Sun 05:10:43 PM 39.9197 -76.5064 273° West 418 481 25,200 1,815 Climbing New York Center
Sun 05:11:41 PM 39.9250 -76.6558 273° West 425 489 27,500 1,436 Climbing New York Center
Sun 05:12:40 PM 39.9447 -76.8011 280° West 419 482 28,000 252 Climbing New York Center
Sun 05:13:40 PM 39.9728 -76.9469 284° West 414 476 28,000 843 Level New York Center
Sun 05:14:41 PM 40.0003 -77.0931 284° West 414 476 29,700 984 Climbing New York Center
Sun 05:15:42 PM 40.0258 -77.2367 283° West 419 482 30,000 151 Climbing New York Center
Sun 05:16:40 PM 40.0533 -77.3803 284° West 419 482 30,000  Level New York Center
Sun 05:17:42 PM 40.0808 -77.5239 284° West 419 482 30,000  Level New York Center
Sun 05:21:22 PM 40.1369 -78.0494 278° West 406 467 30,000 -214 Level Cleveland Center
Sun 05:22:22 PM 40.1400 -78.1958 272° West 401 461 29,000 -1,250 Descending Cleveland Center
Sun 05:23:22 PM 40.1411 -78.3453 271° West 407 468 27,500 -1,350 Descending Cleveland Center
Sun 05:24:22 PM 40.1397 -78.4947 269° West 412 474 26,300 -750 Descending Cleveland Center
Sun 05:25:22 PM 40.1506 -78.6411 276° West 418 481 26,000 -150 Descending Cleveland Center
Sun 05:26:22 PM 40.1864 -78.7894 288° West 424 488 26,000  Level Cleveland Center
Sun 05:27:22 PM 40.2242 -78.9353 289° West 424 488 26,000  Level Cleveland Center
Sun 05:28:22 PM 40.2614 -79.0731 290° West 419 482 26,000  Level Cleveland Center
Sun 05:29:22 PM 40.2967 -79.2111 289° West 412 474 26,000  Level Cleveland Center
Sun 05:30:22 PM 40.3378 -79.3628 290° West 402 463 26,000  Level Cleveland Center
Sun 05:31:22 PM 40.3728 -79.5011 288° West 402 463 26,000  Level Cleveland Center
Sun 05:32:22 PM 40.4072 -79.6425 288° West 402 463 26,000  Level Cleveland Center
Sun 05:33:22 PM 40.4394 -79.7728 288° West 407 468 26,000  Level Cleveland Center
Sun 05:34:22 PM 40.4717 -79.9089 287° West 402 463 26,000  Level Cleveland Center
Sun 05:35:22 PM 40.5058 -80.0478 288° West 402 463 26,000  Level Cleveland Center
Sun 05:36:22 PM 40.5397 -80.1897 287° West 402 463 26,000  Level Cleveland Center
Sun 05:37:22 PM 40.5733 -80.3344 287° West 402 463 26,000  Level Cleveland Center
Sun 05:38:22 PM 40.6133 -80.4928 288° West 409 471 26,000  Level Cleveland Center
Sun 05:39:22 PM 40.6467 -80.6242 289° West 416 479 26,000  Level Cleveland Center
Sun 05:40:22 PM 40.6861 -80.7583 291° West 416 479 26,000  Level Cleveland Center
Sun 05:41:22 PM 40.7483 -80.8900 302° West 416 479 26,000  Level Cleveland Center
Sun 05:42:22 PM 40.8125 -81.0167 304° West 416 479 26,000  Level Cleveland Center
Sun 05:43:22 PM 40.8767 -81.1517 302° West 422 486 26,000  Level Cleveland Center
Sun 05:44:22 PM 40.9386 -81.2786 303° West 427 491 26,000  Level Cleveland Center
Sun 05:45:22 PM 41.0000 -81.4111 302° West 409 471 26,000  Level Cleveland Center
Sun 05:46:22 PM 41.0264 -81.5272 287° West 339 390 26,000  Level Cleveland Center
Sun 05:47:22 PM 41.0314 -81.6511 273° West 344 396 26,000  Level Cleveland Center
Sun 05:48:22 PM 41.0364 -81.7778 273° West 349 402 26,000  Level Cleveland Center
Sun 05:49:22 PM 41.0475 -81.9047 277° West 349 402 26,000  Level Cleveland Center
Sun 05:50:22 PM 41.1089 -82.0078 308° West 337 388 26,000  Level Cleveland Center
Sun 05:51:22 PM 41.1828 -82.0922 319° Northwest 362 417 26,000 -250 Level Cleveland Center
Sun 05:52:22 PM 41.2669 -82.2019 316° Northwest 402 463 25,500 -1,000 Descending Cleveland Center
Sun 05:53:22 PM 41.3508 -82.3064 317° Northwest 412 474 24,000 -2,000 Descending Cleveland Center
Sun 05:54:22 PM 41.4347 -82.4111 317° Northwest 412 474 21,500 -2,600 Descending Cleveland Center
Sun 05:55:22 PM 41.5244 -82.5247 317° Northwest 412 474 18,800 -2,778 Descending Cleveland Center
Sun 05:56:10 PM 41.5900 -82.6014 319° Northwest 394 453 16,500 -2,550 Descending Cleveland Center
Sun 05:57:22 PM 41.6775 -82.7183 315° West 386 444 13,700 -2,413 Descending Cleveland Center
Sun 05:57:42 PM 41.7058 -82.7553 316° Northwest 372 428 12,800 -1,700 Descending Cleveland Center
Sun 05:58:22 PM 41.7528 -82.8125 318° Northwest 375 432 12,000 -787 Descending Cleveland Center
Sun 05:58:43 PM 41.7772 -82.8414 319° Northwest 354 407 12,000  Level Cleveland Center
Sun 05:59:22 PM 41.8133 -82.9122 304° West 358 412 12,000 90 Level Cleveland Center
Sun 05:59:50 PM 41.8436 -82.9636 308° West 357 411 12,100 100 Climbing Cleveland Center
Sun 06:00:22 PM 41.8736 -83.0175 307° West 358 412 12,100  Level Cleveland Center
Sun 06:00:51 PM 41.9058 -83.0719 309° West 355 409 12,100 -100 Level Cleveland Center
Sun 06:01:22 PM 41.9319 -83.1231 304° West 353 406 12,000  Descending Cleveland Center
Sun 06:01:52 PM 41.9639 -83.1775 308° West 354 407 12,100  Climbing Cleveland Center
Sun 06:02:22 PM 41.9919 -83.2289 306° West 353 406 12,000  Descending Cleveland Center
Sun 06:02:59 PM 42.0322 -83.2950 309° West 356 410 12,100  Climbing Cleveland Center
Sun 06:03:22 PM 42.0461 -83.3233 303° West 353 406 12,000  Descending Cleveland Center
Sun 06:03:54 PM 42.0989 -83.3789 322° Northwest 355 409 12,100 -300 Climbing Cleveland Center
Sun 06:04:22 PM 42.1233 -83.4022 325° Northwest 346 398 11,700 -1,075 Descending Cleveland Center
Sun 06:05:01 PM 42.1844 -83.4556 327° Northwest 318 366 10,900 -1,100 Descending Cleveland Center
Sun 06:05:22 PM 42.2011 -83.4619 344° North 338 389 10,600 -1,180 Descending Cleveland Center
Sun 06:06:02 PM 42.2656 -83.4733 353° North 279 321 9,700 -1,426 Descending Cleveland Center
Sun 06:07:03 PM 42.3328 -83.4481 16° North 250 288 8,200 -1,721 Descending Cleveland Center
Sun 06:08:04 PM 42.4003 -83.4203 17° North 244 281 6,200 -1,672 Descending Cleveland Center
Sun 06:09:05 PM 42.4653 -83.3950 16° North 237 273 4,800 -1,086 Descending Cleveland Center
Sun 06:10:00 PM 42.5181 -83.3692 20° North 220 253 4,100 -382 Descending Cleveland Center
Sun 06:10:55 PM 42.5669 -83.3406 23° Northeast 201 231 4,100  Level Cleveland Center
Sun 06:11:56 PM 42.5847 -83.2847 67° East 181 208 4,100  Level Cleveland Center
Sun 06:12:58 PM 42.5592 -83.2217 119° Southeast 181 208 4,100  Level Cleveland Center
Sun 06:14:05 PM 42.5164 -83.1806 145° Southeast 167 192 4,100  Level Cleveland Center
Sun 06:15:06 PM 42.4681 -83.1925 190° South 171 197 4,100  Level Cleveland Center

Login

Don't have an account? Register now (free) for customized features, flight alerts, and more!